createdAt,value
2022-11-10T00:00:19.302Z,9.93
2022-11-10T00:03:07.602Z,9.95
2022-11-10T00:05:54.409Z,10.02
2022-11-10T00:08:40.553Z,10.01
2022-11-10T00:11:27.214Z,10.02
2022-11-10T00:14:32.130Z,10.01
2022-11-10T00:17:18.587Z,10.04
2022-11-10T00:20:06.217Z,10.05
2022-11-10T00:22:54.459Z,10.09
2022-11-10T00:25:40.933Z,10.09
2022-11-10T00:28:29.512Z,10.08
2022-11-10T00:31:15.935Z,10.08
2022-11-10T00:34:02.577Z,10.02
2022-11-10T00:36:48.986Z,9.99
2022-11-10T00:39:35.473Z,9.95
2022-11-10T00:42:21.954Z,9.97
2022-11-10T00:45:09.464Z,9.91
2022-11-10T00:47:55.729Z,9.88
2022-11-10T00:50:42.519Z,9.84
2022-11-10T00:53:28.937Z,9.81
2022-11-10T00:56:15.788Z,9.80
2022-11-10T00:59:01.925Z,9.78
2022-11-10T01:01:48.324Z,9.73
2022-11-10T01:04:35.082Z,9.69
2022-11-10T01:07:21.672Z,9.66
2022-11-10T01:10:08.506Z,9.66
2022-11-10T01:12:55.480Z,9.64
2022-11-10T01:15:42.799Z,9.64
2022-11-10T01:18:29.203Z,9.64
2022-11-10T01:21:15.869Z,9.60
2022-11-10T01:24:02.518Z,9.56
2022-11-10T01:26:49.212Z,9.54
2022-11-10T01:29:35.633Z,9.54
2022-11-10T01:32:22.279Z,9.54
2022-11-10T01:35:09.423Z,9.53
2022-11-10T01:37:55.665Z,9.50
2022-11-10T01:40:42.328Z,9.43
2022-11-10T01:43:29.310Z,9.42
2022-11-10T01:46:16.134Z,9.44
2022-11-10T01:49:03.646Z,9.40
2022-11-10T01:52:00.484Z,9.44
2022-11-10T01:54:49.294Z,9.42
2022-11-10T01:57:36.915Z,9.38
2022-11-10T02:00:24.129Z,9.40
2022-11-10T02:03:24.070Z,9.40
2022-11-10T02:06:11.285Z,9.39
2022-11-10T02:09:00.889Z,9.39
2022-11-10T02:11:51.512Z,9.36
2022-11-10T02:14:38.397Z,9.42
2022-11-10T02:17:24.942Z,9.42
2022-11-10T02:20:14.167Z,9.33
2022-11-10T02:23:10.808Z,9.33
2022-11-10T02:25:58.244Z,9.33
2022-11-10T02:28:44.466Z,9.36
2022-11-10T02:31:31.015Z,9.38
2022-11-10T02:34:17.555Z,9.39
2022-11-10T02:37:04.686Z,9.39
2022-11-10T02:39:51.345Z,9.40
2022-11-10T02:42:37.926Z,9.40
2022-11-10T02:45:24.477Z,9.40
2022-11-10T02:48:12.542Z,9.40
2022-11-10T02:50:59.124Z,9.39
2022-11-10T02:53:45.409Z,9.38
2022-11-10T02:56:32.258Z,9.40
2022-11-10T02:59:18.619Z,9.42
2022-11-10T03:02:05.035Z,9.39
2022-11-10T03:04:51.572Z,9.36
2022-11-10T03:07:38.439Z,9.40
2022-11-10T03:10:26.025Z,9.39
2022-11-10T03:13:12.613Z,9.38
2022-11-10T03:15:58.969Z,9.30
2022-11-10T03:18:45.558Z,9.38
2022-11-10T03:21:31.988Z,9.38
2022-11-10T03:24:18.403Z,9.39
2022-11-10T03:27:04.661Z,9.36
2022-11-10T03:29:51.227Z,9.33
2022-11-10T03:32:37.848Z,9.32
2022-11-10T03:35:24.366Z,9.28
2022-11-10T03:38:11.072Z,9.32
2022-11-10T03:41:18.381Z,9.32
2022-11-10T03:44:03.889Z,9.32
2022-11-10T03:46:51.795Z,9.33
2022-11-10T03:49:38.484Z,9.35
2022-11-10T03:52:24.963Z,9.33
2022-11-10T03:55:14.099Z,9.36
2022-11-10T03:58:04.885Z,9.40
2022-11-10T04:00:54.332Z,9.39
2022-11-10T04:03:40.699Z,9.39
2022-11-10T04:06:45.646Z,9.38
2022-11-10T04:09:32.067Z,9.33
2022-11-10T04:12:37.195Z,9.33
2022-11-10T04:15:42.213Z,9.33
2022-11-10T04:18:29.673Z,9.28
2022-11-10T04:21:16.430Z,9.32
2022-11-10T04:24:03.050Z,9.29
2022-11-10T04:26:50.247Z,9.35
2022-11-10T04:29:36.567Z,9.38
2022-11-10T04:32:23.276Z,9.40
2022-11-10T04:35:10.144Z,9.43
2022-11-10T04:37:56.469Z,9.43
2022-11-10T04:40:43.053Z,9.47
2022-11-10T04:43:29.972Z,9.46
2022-11-10T04:46:22.488Z,9.49
2022-11-10T04:49:10.393Z,9.49
2022-11-10T04:51:56.918Z,9.49
2022-11-10T04:54:43.785Z,9.49
2022-11-10T04:57:30.388Z,9.50
2022-11-10T05:00:17.613Z,9.50
2022-11-10T05:03:07.505Z,9.47
2022-11-10T05:05:54.110Z,9.47
2022-11-10T05:08:42.388Z,9.43
2022-11-10T05:11:28.987Z,9.40
2022-11-10T05:14:15.217Z,9.40
2022-11-10T05:17:01.883Z,9.40
2022-11-10T05:19:48.480Z,9.40
2022-11-10T05:22:35.061Z,9.35
2022-11-10T05:25:21.489Z,9.35
2022-11-10T05:28:10.431Z,9.35
2022-11-10T05:30:57.012Z,9.32
2022-11-10T05:33:43.517Z,9.29
2022-11-10T05:36:29.830Z,9.30
2022-11-10T05:39:16.335Z,9.30
2022-11-10T05:42:04.354Z,9.26
2022-11-10T05:44:50.858Z,9.23
2022-11-10T05:47:38.482Z,9.23
2022-11-10T05:50:25.821Z,9.21
2022-11-10T05:53:12.719Z,9.21
2022-11-10T05:55:59.132Z,9.23
2022-11-10T05:58:45.626Z,9.23
2022-11-10T06:01:32.237Z,9.22
2022-11-10T06:04:18.762Z,9.22
2022-11-10T06:07:05.285Z,9.25
2022-11-10T06:09:51.682Z,9.26
2022-11-10T06:12:38.522Z,9.23
2022-11-10T06:15:25.495Z,9.21
2022-11-10T06:18:11.664Z,9.21
2022-11-10T06:20:58.275Z,9.18
2022-11-10T06:23:44.936Z,9.19
2022-11-10T06:26:31.401Z,9.15
2022-11-10T06:29:21.631Z,9.14
2022-11-10T06:32:12.501Z,9.11
2022-11-10T06:35:01.067Z,9.11
2022-11-10T06:38:01.059Z,9.07
2022-11-10T06:40:47.574Z,9.05
2022-11-10T06:43:34.793Z,9.05
2022-11-10T06:46:21.096Z,9.04
2022-11-10T06:49:09.548Z,9.05
2022-11-10T06:51:58.936Z,9.07
2022-11-10T06:54:45.203Z,9.11
2022-11-10T06:57:39.096Z,9.12
2022-11-10T07:00:27.261Z,9.12
2022-11-10T07:03:15.405Z,9.08
2022-11-10T07:06:02.035Z,9.12
2022-11-10T07:08:49.429Z,9.15
2022-11-10T07:11:35.935Z,9.18
2022-11-10T07:14:22.624Z,9.21
2022-11-10T07:17:09.274Z,9.22
2022-11-10T07:19:55.725Z,9.23
2022-11-10T07:22:42.264Z,9.29
2022-11-10T07:25:29.756Z,9.26
2022-11-10T07:28:15.956Z,9.28
2022-11-10T07:31:04.481Z,9.33
2022-11-10T07:33:54.491Z,9.42
2022-11-10T07:36:41.405Z,9.44
2022-11-10T07:39:27.947Z,9.56
2022-11-10T07:42:14.532Z,9.66
2022-11-10T07:45:01.112Z,9.66
2022-11-10T07:47:47.291Z,9.67
2022-11-10T07:50:34.430Z,9.71
2022-11-10T07:53:21.943Z,9.74
2022-11-10T07:56:08.739Z,9.78
2022-11-10T07:58:55.550Z,9.87
2022-11-10T08:01:42.047Z,9.91
2022-11-10T08:04:28.401Z,9.98
2022-11-10T08:07:15.082Z,10.05
2022-11-10T08:10:01.481Z,10.11
2022-11-10T08:12:55.278Z,10.16
2022-11-10T08:15:42.098Z,10.26
2022-11-10T08:18:34.908Z,10.36
2022-11-10T08:21:21.657Z,10.40
2022-11-10T08:24:08.676Z,10.49
2022-11-10T08:26:55.894Z,10.60
2022-11-10T08:29:42.439Z,10.66
2022-11-10T08:32:29.027Z,10.74
2022-11-10T08:35:15.603Z,10.90
2022-11-10T08:38:16.576Z,11.04
2022-11-10T08:41:03.322Z,11.28
2022-11-10T08:43:49.548Z,11.52
2022-11-10T08:46:36.283Z,11.53
2022-11-10T08:49:22.989Z,11.59
2022-11-10T08:52:10.559Z,11.64
2022-11-10T08:54:56.843Z,11.60
2022-11-10T08:57:43.446Z,11.62
2022-11-10T09:00:31.501Z,11.64
2022-11-10T09:03:24.048Z,11.66
2022-11-10T09:06:10.863Z,11.67
2022-11-10T09:08:57.779Z,11.67
2022-11-10T09:11:44.343Z,11.76
2022-11-10T09:14:30.898Z,11.85
2022-11-10T09:17:17.354Z,11.99
2022-11-10T09:20:04.802Z,12.08
2022-11-10T09:22:51.511Z,12.14
2022-11-10T09:25:38.797Z,12.25
2022-11-10T09:28:25.736Z,12.36
2022-11-10T09:31:12.048Z,12.49
2022-11-10T09:34:01.715Z,12.56
2022-11-10T09:36:48.332Z,12.73
2022-11-10T09:39:34.686Z,12.74
2022-11-10T09:42:24.208Z,12.70
2022-11-10T09:45:20.033Z,12.64
2022-11-10T09:48:22.688Z,12.66
2022-11-10T09:51:18.126Z,12.73
2022-11-10T09:54:06.042Z,12.83
2022-11-10T09:56:55.928Z,12.97
2022-11-10T09:59:43.695Z,13.00
2022-11-10T10:02:36.769Z,13.10
2022-11-10T10:05:51.604Z,13.14
2022-11-10T10:09:26.983Z,13.19
2022-11-10T10:12:24.508Z,13.19
2022-11-10T10:15:13.900Z,13.32
2022-11-10T10:18:07.890Z,13.43
2022-11-10T10:21:22.588Z,13.59
2022-11-10T10:24:21.023Z,13.60
2022-11-10T10:27:21.185Z,13.66
2022-11-10T10:30:17.785Z,13.69
2022-11-10T10:33:22.204Z,13.64
2022-11-10T10:36:24.357Z,13.62
2022-11-10T10:39:17.494Z,13.78
2022-11-10T10:42:16.103Z,13.84
2022-11-10T10:45:16.246Z,13.85
2022-11-10T10:48:03.302Z,13.98
2022-11-10T10:50:50.437Z,14.02
2022-11-10T10:53:49.101Z,14.02
2022-11-10T10:56:38.044Z,14.07
2022-11-10T10:59:25.027Z,14.17
2022-11-10T11:02:38.386Z,14.29
2022-11-10T11:05:24.974Z,14.32
2022-11-10T11:08:19.254Z,14.36
2022-11-10T11:11:12.577Z,14.29
2022-11-10T11:14:19.258Z,14.17
2022-11-10T11:17:22.684Z,14.17
2022-11-10T11:20:18.549Z,14.19
2022-11-10T11:23:31.611Z,14.35
2022-11-10T11:26:56.923Z,14.42
2022-11-10T11:30:03.443Z,14.46
2022-11-10T11:32:55.822Z,14.60
2022-11-10T11:36:00.656Z,14.70
2022-11-10T11:39:28.541Z,14.85
2022-11-10T11:42:30.056Z,15.05
2022-11-10T11:45:42.006Z,15.07
2022-11-10T11:48:47.204Z,15.05
2022-11-10T11:52:04.207Z,15.10
2022-11-10T11:55:11.791Z,15.07
2022-11-10T11:58:12.994Z,15.07
2022-11-10T12:01:17.924Z,15.12
2022-11-10T12:04:32.014Z,14.93
2022-11-10T12:07:45.165Z,14.83
2022-11-10T12:10:43.308Z,14.74
2022-11-10T12:13:56.852Z,14.73
2022-11-10T12:16:55.540Z,14.70
2022-11-10T12:20:22.666Z,14.74
2022-11-10T12:23:29.528Z,14.93
2022-11-10T12:26:32.029Z,15.04
2022-11-10T12:29:53.883Z,15.01
2022-11-10T12:32:49.139Z,14.97
2022-11-10T12:35:39.704Z,15.01
2022-11-10T12:38:47.373Z,15.10
2022-11-10T12:41:48.505Z,15.05
2022-11-10T12:44:56.959Z,15.12
2022-11-10T12:47:48.025Z,15.02
2022-11-10T12:50:43.498Z,14.94
2022-11-10T12:53:36.722Z,15.04
2022-11-10T12:56:26.693Z,15.04
2022-11-10T12:59:22.532Z,15.04
2022-11-10T13:02:35.154Z,14.97
2022-11-10T13:05:24.723Z,14.90
2022-11-10T13:08:33.029Z,14.90
2022-11-10T13:11:37.628Z,14.81
2022-11-10T13:14:30.171Z,14.88
2022-11-10T13:17:29.099Z,14.84
2022-11-10T13:21:10.069Z,14.84
2022-11-10T13:24:18.987Z,14.81
2022-11-10T13:27:36.557Z,14.88
2022-11-10T13:30:46.465Z,14.97
2022-11-10T13:33:37.968Z,14.94
2022-11-10T13:36:39.178Z,15.02
2022-11-10T13:39:34.883Z,14.93
2022-11-10T13:42:24.120Z,14.88
2022-11-10T13:45:36.626Z,14.70
2022-11-10T13:48:44.369Z,14.69
2022-11-10T13:51:42.351Z,14.66
2022-11-10T13:55:05.994Z,14.60
2022-11-10T13:58:02.834Z,14.56
2022-11-10T14:01:11.238Z,14.49
2022-11-10T14:04:01.891Z,14.45
2022-11-10T14:06:55.404Z,14.36
2022-11-10T14:09:45.827Z,14.35
2022-11-10T14:12:46.031Z,14.33
2022-11-10T14:15:43.090Z,14.30
2022-11-10T14:19:06.235Z,14.26
2022-11-10T14:21:58.568Z,14.26
2022-11-10T14:25:17.645Z,14.24
2022-11-10T14:28:25.692Z,14.18
2022-11-10T14:31:26.023Z,14.22
2022-11-10T14:34:17.596Z,14.17
2022-11-10T14:37:05.081Z,14.12
2022-11-10T14:40:00.643Z,14.10
2022-11-10T14:42:47.791Z,14.07
2022-11-10T14:45:34.530Z,14.02
2022-11-10T14:48:27.022Z,13.95
2022-11-10T14:51:19.992Z,13.90
2022-11-10T14:54:11.983Z,13.87
2022-11-10T14:56:58.345Z,13.85
2022-11-10T14:59:44.898Z,13.84
2022-11-10T15:02:31.635Z,13.84
2022-11-10T15:05:18.348Z,13.83
2022-11-10T15:08:05.955Z,13.73
2022-11-10T15:10:59.058Z,13.71
2022-11-10T15:13:46.170Z,13.60
2022-11-10T15:16:38.888Z,13.53
2022-11-10T15:19:31.311Z,13.47
2022-11-10T15:22:20.618Z,13.43
2022-11-10T15:25:19.113Z,13.35
2022-11-10T15:28:31.069Z,13.29
2022-11-10T15:31:29.893Z,13.23
2022-11-10T15:34:41.500Z,13.14
2022-11-10T15:37:31.465Z,13.10
2022-11-10T15:40:44.270Z,13.00
2022-11-10T15:43:31.194Z,12.95
2022-11-10T15:46:24.627Z,12.93
2022-11-10T15:49:32.714Z,12.87
2022-11-10T15:52:23.323Z,12.84
2022-11-10T15:55:23.608Z,12.80
2022-11-10T15:58:21.878Z,12.73
2022-11-10T16:01:12.355Z,12.63
2022-11-10T16:03:59.403Z,12.55
2022-11-10T16:06:46.556Z,12.47
2022-11-10T16:09:33.192Z,12.42
2022-11-10T16:12:22.528Z,12.40
2022-11-10T16:15:17.464Z,12.40
2022-11-10T16:18:04.476Z,12.39
2022-11-10T16:20:52.339Z,12.26
2022-11-10T16:23:38.648Z,12.26
2022-11-10T16:26:26.515Z,12.19
2022-11-10T16:29:15.763Z,12.19
2022-11-10T16:32:01.946Z,12.14
2022-11-10T16:34:48.487Z,12.14
2022-11-10T16:37:35.269Z,12.14
2022-11-10T16:40:24.523Z,12.06
2022-11-10T16:43:18.278Z,12.01
2022-11-10T16:46:13.568Z,12.01
2022-11-10T16:49:02.175Z,11.97
2022-11-10T16:51:49.299Z,11.94
2022-11-10T16:54:35.896Z,11.90
2022-11-10T16:57:22.438Z,11.90
2022-11-10T17:00:10.359Z,11.87
2022-11-10T17:03:02.159Z,11.93
2022-11-10T17:05:48.843Z,11.95
2022-11-10T17:08:36.396Z,11.98
2022-11-10T17:11:25.380Z,11.95
2022-11-10T17:14:13.161Z,11.93
2022-11-10T17:16:59.531Z,11.90
2022-11-10T17:19:48.502Z,11.85
2022-11-10T17:22:36.439Z,11.83
2022-11-10T17:25:26.880Z,11.73
2022-11-10T17:28:16.036Z,11.64
2022-11-10T17:31:03.350Z,11.59
2022-11-10T17:33:49.798Z,11.53
2022-11-10T17:36:36.415Z,11.44
2022-11-10T17:39:23.026Z,11.39
2022-11-10T17:42:13.901Z,11.42
2022-11-10T17:45:00.336Z,11.40
2022-11-10T17:47:48.456Z,11.39
2022-11-10T17:50:36.748Z,11.40
2022-11-10T17:53:25.739Z,11.33
2022-11-10T17:56:12.319Z,11.30
2022-11-10T17:58:59.143Z,11.23
2022-11-10T18:01:45.759Z,11.23
2022-11-10T18:04:32.326Z,11.16
2022-11-10T18:07:18.963Z,11.19
2022-11-10T18:10:06.022Z,11.21
2022-11-10T18:12:52.854Z,11.22
2022-11-10T18:15:43.466Z,11.25
2022-11-10T18:18:30.197Z,11.23
2022-11-10T18:21:17.069Z,11.18
2022-11-10T18:24:03.982Z,11.15
2022-11-10T18:26:50.384Z,11.08
2022-11-10T18:29:36.880Z,11.07
2022-11-10T18:32:23.691Z,11.04
2022-11-10T18:35:10.289Z,10.98
2022-11-10T18:37:58.334Z,11.01
2022-11-10T18:40:44.565Z,11.00
2022-11-10T18:43:31.259Z,11.01
2022-11-10T18:46:18.239Z,11.05
2022-11-10T18:49:04.649Z,11.04
2022-11-10T18:51:51.152Z,11.00
2022-11-10T18:54:37.822Z,10.98
2022-11-10T18:57:24.437Z,10.90
2022-11-10T19:00:12.100Z,10.87
2022-11-10T19:02:58.428Z,10.91
2022-11-10T19:05:55.659Z,10.97
2022-11-10T19:08:45.272Z,10.93
2022-11-10T19:11:33.944Z,10.90
2022-11-10T19:14:20.563Z,10.94
2022-11-10T19:17:07.454Z,10.91
2022-11-10T19:19:56.741Z,10.94
2022-11-10T19:22:43.579Z,10.97
2022-11-10T19:25:30.697Z,11.02
2022-11-10T19:28:17.412Z,11.01
2022-11-10T19:31:06.992Z,11.02
2022-11-10T19:33:56.208Z,11.02
2022-11-10T19:36:43.225Z,11.02
2022-11-10T19:39:29.568Z,11.02
2022-11-10T19:42:16.337Z,11.00
2022-11-10T19:45:03.071Z,10.95
2022-11-10T19:47:49.449Z,10.93
2022-11-10T19:50:36.144Z,10.93
2022-11-10T19:53:23.202Z,10.91
2022-11-10T19:56:15.232Z,10.85
2022-11-10T19:59:04.470Z,10.85
2022-11-10T20:01:50.985Z,10.81
2022-11-10T20:04:57.791Z,10.83
2022-11-10T20:08:07.447Z,10.84
2022-11-10T20:11:00.864Z,10.85
2022-11-10T20:13:54.232Z,10.90
2022-11-10T20:16:41.295Z,10.84
2022-11-10T20:19:27.858Z,10.83
2022-11-10T20:22:14.702Z,10.85
2022-11-10T20:25:01.221Z,10.85
2022-11-10T20:27:47.706Z,10.85
2022-11-10T20:30:37.557Z,10.83
2022-11-10T20:33:24.798Z,10.81
2022-11-10T20:36:20.212Z,10.77
2022-11-10T20:39:08.351Z,10.77
2022-11-10T20:41:57.965Z,10.77
2022-11-10T20:44:45.428Z,10.81
2022-11-10T20:47:32.823Z,10.78
2022-11-10T20:50:24.238Z,10.75
2022-11-10T20:53:10.942Z,10.70
2022-11-10T20:56:01.975Z,10.64
2022-11-10T20:58:49.375Z,10.64
2022-11-10T21:01:37.980Z,10.67
2022-11-10T21:04:24.822Z,10.61
2022-11-10T21:07:11.413Z,10.57
2022-11-10T21:09:58.115Z,10.56
2022-11-10T21:12:50.372Z,10.56
2022-11-10T21:15:40.911Z,10.53
2022-11-10T21:18:30.721Z,10.53
2022-11-10T21:21:26.714Z,10.53
2022-11-10T21:24:14.546Z,10.53
2022-11-10T21:27:01.168Z,10.56
2022-11-10T21:29:49.361Z,10.56
2022-11-10T21:32:38.533Z,10.56
2022-11-10T21:35:26.564Z,10.50
2022-11-10T21:38:14.112Z,10.52
2022-11-10T21:41:00.991Z,10.49
2022-11-10T21:43:48.336Z,10.43
2022-11-10T21:46:34.732Z,10.40
2022-11-10T21:49:21.492Z,10.43
2022-11-10T21:52:08.874Z,10.40
2022-11-10T21:54:55.655Z,10.42
2022-11-10T21:57:43.262Z,10.39
2022-11-10T22:00:32.658Z,10.35
2022-11-10T22:03:19.244Z,10.35
2022-11-10T22:06:50.081Z,10.36
2022-11-10T22:09:59.972Z,10.36
2022-11-10T22:13:05.001Z,10.29
2022-11-10T22:16:20.606Z,10.26
2022-11-10T22:19:13.059Z,10.23
2022-11-10T22:22:03.642Z,10.19
2022-11-10T22:24:52.256Z,10.19
2022-11-10T22:27:38.799Z,10.12
2022-11-10T22:30:25.281Z,10.13
2022-11-10T22:33:30.855Z,10.12
2022-11-10T22:36:17.752Z,10.13
2022-11-10T22:39:07.504Z,10.13
2022-11-10T22:42:14.143Z,10.13
2022-11-10T22:45:01.470Z,10.11
2022-11-10T22:48:06.675Z,10.12
2022-11-10T22:50:57.303Z,10.16
2022-11-10T22:53:43.577Z,10.09
2022-11-10T22:56:32.219Z,10.08
2022-11-10T22:59:19.772Z,10.05
2022-11-10T23:02:06.282Z,10.08
2022-11-10T23:04:52.848Z,10.08
2022-11-10T23:07:39.926Z,10.02
2022-11-10T23:10:26.449Z,10.01
2022-11-10T23:13:14.601Z,9.98
2022-11-10T23:16:15.716Z,9.99
2022-11-10T23:19:02.652Z,9.98
2022-11-10T23:21:48.705Z,9.99
2022-11-10T23:24:35.249Z,10.02
2022-11-10T23:27:21.585Z,10.01
2022-11-10T23:30:08.658Z,9.98
2022-11-10T23:32:55.588Z,9.97
2022-11-10T23:35:41.907Z,9.95
2022-11-10T23:38:33.713Z,9.93
2022-11-10T23:41:23.506Z,9.93
2022-11-10T23:44:10.839Z,9.87
2022-11-10T23:46:57.165Z,9.85
2022-11-10T23:49:43.501Z,9.84
2022-11-10T23:52:30.183Z,9.84
2022-11-10T23:55:16.640Z,9.80
2022-11-10T23:58:03.757Z,9.75
